createdAt,value
2018-08-10T00:01:35.632Z,100840.02
2018-08-10T00:04:04.777Z,100841.63
2018-08-10T00:06:32.848Z,100852.80
2018-08-10T00:09:00.909Z,100855.37
2018-08-10T00:11:28.935Z,100895.48
2018-08-10T00:13:56.949Z,100895.33
2018-08-10T00:16:24.961Z,100900.99
2018-08-10T00:18:53.057Z,100916.09
2018-08-10T00:21:21.273Z,100913.76
2018-08-10T00:23:49.296Z,100908.73
2018-08-10T00:26:17.404Z,100905.41
2018-08-10T00:28:45.428Z,100926.02
2018-08-10T00:31:13.439Z,100935.99
2018-08-10T00:33:41.916Z,100956.09
2018-08-10T00:36:09.932Z,100953.13
2018-08-10T00:38:38.318Z,100964.28
2018-08-10T00:41:06.364Z,100974.12
2018-08-10T00:43:34.384Z,100977.09
2018-08-10T00:46:02.401Z,100979.26
2018-08-10T00:48:30.413Z,100987.78
2018-08-10T00:50:58.452Z,100995.70
2018-08-10T00:53:26.608Z,101001.72
2018-08-10T00:55:54.620Z,101015.14
2018-08-10T00:58:22.776Z,101017.77
2018-08-10T01:00:50.788Z,101009.16
2018-08-10T01:03:18.871Z,101023.75
2018-08-10T01:05:46.880Z,101024.59
2018-08-10T01:08:14.896Z,101035.27
2018-08-10T01:10:42.915Z,101042.00
2018-08-10T01:13:10.949Z,101045.72
2018-08-10T01:15:38.961Z,101046.33
2018-08-10T01:18:06.981Z,101060.72
2018-08-10T01:20:35.004Z,101060.86
2018-08-10T01:23:05.864Z,101071.06
2018-08-10T01:25:33.880Z,101072.77
2018-08-10T01:28:03.153Z,101071.36
2018-08-10T01:30:34.997Z,101082.59
2018-08-10T01:33:03.260Z,101082.50
2018-08-10T01:35:31.665Z,101087.45
2018-08-10T01:38:00.734Z,101094.73
2018-08-10T01:40:28.785Z,101100.73
2018-08-10T01:42:56.788Z,101097.14
2018-08-10T01:45:24.817Z,101107.92
2018-08-10T01:47:52.985Z,101105.66
2018-08-10T01:50:21.025Z,101104.44
2018-08-10T01:52:49.185Z,101109.37
2018-08-10T01:55:17.189Z,101113.79
2018-08-10T01:57:45.197Z,101123.38
2018-08-10T02:00:13.213Z,101126.95
2018-08-10T02:02:41.221Z,101125.03
2018-08-10T02:05:10.568Z,101129.84
2018-08-10T02:07:39.312Z,101137.50
2018-08-10T02:10:10.436Z,101139.05
2018-08-10T02:12:39.050Z,101153.30
2018-08-10T02:15:10.105Z,101145.14
2018-08-10T02:17:38.504Z,101158.56
2018-08-10T02:20:07.955Z,101152.70
2018-08-10T02:22:36.069Z,101147.55
2018-08-10T02:25:05.989Z,101160.11
2018-08-10T02:27:34.001Z,101150.05
2018-08-10T02:30:02.035Z,101162.37
2018-08-10T02:32:30.045Z,101171.97
2018-08-10T02:34:58.058Z,101177.46
2018-08-10T02:37:26.065Z,101183.58
2018-08-10T02:39:54.073Z,101188.38
2018-08-10T02:42:22.105Z,101190.51
2018-08-10T02:44:50.128Z,101203.92
2018-08-10T02:47:22.693Z,101230.12
2018-08-10T02:49:50.828Z,101212.53
2018-08-10T02:52:18.857Z,101221.52
2018-08-10T02:54:46.876Z,101215.16
2018-08-10T02:57:15.106Z,101218.98
2018-08-10T02:59:43.704Z,101229.52
2018-08-10T03:02:11.724Z,101238.03
2018-08-10T03:04:39.784Z,101237.31
2018-08-10T03:07:07.824Z,101243.88
2018-08-10T03:09:35.849Z,101247.59
2018-08-10T03:12:04.620Z,101260.28
2018-08-10T03:14:32.646Z,101255.14
2018-08-10T03:17:00.665Z,101260.03
2018-08-10T03:19:28.680Z,101263.63
2018-08-10T03:21:56.710Z,101272.00
2018-08-10T03:24:24.722Z,101267.20
2018-08-10T03:26:52.748Z,101277.73
2018-08-10T03:29:20.772Z,101279.77
2018-08-10T03:31:48.802Z,101291.23
2018-08-10T03:34:16.900Z,101297.22
2018-08-10T03:36:44.924Z,101296.12
2018-08-10T03:39:13.398Z,101297.89
2018-08-10T03:41:41.916Z,101302.91
2018-08-10T03:44:10.110Z,101303.70
2018-08-10T03:46:38.131Z,101311.00
2018-08-10T03:49:06.193Z,101312.06
2018-08-10T03:51:34.600Z,101321.98
2018-08-10T03:54:02.732Z,101318.14
2018-08-10T03:56:30.797Z,101325.64
2018-08-10T03:58:58.804Z,101329.45
2018-08-10T04:01:26.836Z,101335.41
2018-08-10T04:03:54.957Z,101341.49
2018-08-10T04:06:22.971Z,101346.30
2018-08-10T04:08:51.005Z,101348.34
2018-08-10T04:11:19.030Z,101348.93
2018-08-10T04:13:47.065Z,101349.19
2018-08-10T04:16:15.133Z,101348.11
2018-08-10T04:18:43.161Z,101357.32
2018-08-10T04:21:11.186Z,101356.33
2018-08-10T04:23:39.221Z,101365.54
2018-08-10T04:26:07.246Z,101372.44
2018-08-10T04:28:35.268Z,101377.70
2018-08-10T04:31:03.300Z,101379.34
2018-08-10T04:33:31.316Z,101382.20
2018-08-10T04:35:59.320Z,101382.67
2018-08-10T04:38:27.385Z,101390.30
2018-08-10T04:40:55.392Z,101390.15
2018-08-10T04:43:23.408Z,101394.68
2018-08-10T04:45:51.436Z,101393.72
2018-08-10T04:48:19.510Z,101396.05
2018-08-10T04:50:47.476Z,101400.23
2018-08-10T04:53:15.484Z,101396.78
2018-08-10T04:55:43.516Z,101403.00
2018-08-10T04:58:11.683Z,101413.16
2018-08-10T05:00:39.696Z,101409.69
2018-08-10T05:03:07.731Z,101427.24
2018-08-10T05:05:35.764Z,101423.68
2018-08-10T05:08:03.776Z,101431.45
2018-08-10T05:10:31.802Z,101438.48
2018-08-10T05:12:59.816Z,101437.29
2018-08-10T05:15:27.808Z,101439.77
2018-08-10T05:17:55.824Z,101446.02
2018-08-10T05:20:23.860Z,101443.98
2018-08-10T05:22:51.876Z,101453.20
2018-08-10T05:25:19.892Z,101454.33
2018-08-10T05:27:47.904Z,101453.47
2018-08-10T05:30:16.074Z,101463.30
2018-08-10T05:32:44.081Z,101468.09
2018-08-10T05:35:12.101Z,101471.77
2018-08-10T05:37:40.241Z,101469.75
2018-08-10T05:40:09.296Z,101466.08
2018-08-10T05:42:37.312Z,101470.98
2018-08-10T05:45:38.041Z,101470.78
2018-08-10T05:48:06.061Z,101471.28
2018-08-10T05:50:34.059Z,101472.09
2018-08-10T05:53:02.232Z,101468.15
2018-08-10T05:55:30.281Z,101464.13
2018-08-10T05:57:58.296Z,101471.66
2018-08-10T06:00:26.308Z,101474.20
2018-08-10T06:02:54.327Z,101479.61
2018-08-10T06:05:22.336Z,101483.32
2018-08-10T06:07:50.359Z,101482.73
2018-08-10T06:10:18.372Z,101479.47
2018-08-10T06:12:46.388Z,101491.09
2018-08-10T06:15:14.400Z,101494.27
2018-08-10T06:17:42.409Z,101492.92
2018-08-10T06:20:11.285Z,101492.70
2018-08-10T06:22:39.428Z,101502.11
2018-08-10T06:25:07.832Z,101500.83
2018-08-10T06:27:35.789Z,101498.09
2018-08-10T06:30:05.225Z,101490.84
2018-08-10T06:32:33.246Z,101493.86
2018-08-10T06:35:01.237Z,101492.94
2018-08-10T06:37:29.257Z,101499.41
2018-08-10T06:39:57.275Z,101501.58
2018-08-10T06:42:25.277Z,101501.61
2018-08-10T06:44:53.325Z,101500.70
2018-08-10T06:47:21.277Z,101497.59
2018-08-10T06:49:49.292Z,101504.69
2018-08-10T06:52:17.344Z,101507.30
2018-08-10T06:54:45.352Z,101511.98
2018-08-10T06:57:13.464Z,101511.02
2018-08-10T06:59:41.464Z,101513.88
2018-08-10T07:02:09.487Z,101519.16
2018-08-10T07:04:37.496Z,101522.08
2018-08-10T07:07:05.642Z,101521.31
2018-08-10T07:09:33.672Z,101527.02
2018-08-10T07:12:01.681Z,101521.76
2018-08-10T07:14:29.729Z,101530.73
2018-08-10T07:16:57.707Z,101532.77
2018-08-10T07:19:25.740Z,101537.80
2018-08-10T07:21:53.761Z,101531.45
2018-08-10T07:24:21.776Z,101539.56
2018-08-10T07:26:49.800Z,101536.98
2018-08-10T07:29:17.833Z,101536.69
2018-08-10T07:31:45.856Z,101538.94
2018-08-10T07:34:13.884Z,101546.08
2018-08-10T07:36:41.901Z,101533.34
2018-08-10T07:39:11.660Z,101540.77
2018-08-10T07:41:39.684Z,101538.36
2018-08-10T07:44:07.856Z,101544.57
2018-08-10T07:46:36.132Z,101546.05
2018-08-10T07:49:05.129Z,101546.58
2018-08-10T07:51:33.155Z,101550.09
2018-08-10T07:54:01.238Z,101549.10
2018-08-10T07:56:29.253Z,101550.12
2018-08-10T07:58:57.443Z,101551.60
2018-08-10T08:01:25.773Z,101544.22
2018-08-10T08:03:53.771Z,101548.80
2018-08-10T08:06:21.775Z,101543.12
2018-08-10T08:08:49.800Z,101546.15
2018-08-10T08:11:18.340Z,101543.17
2018-08-10T08:13:46.546Z,101537.70
2018-08-10T08:16:14.809Z,101541.87
2018-08-10T08:18:42.832Z,101542.13
2018-08-10T08:21:12.073Z,101546.20
2018-08-10T08:23:40.121Z,101556.30
2018-08-10T08:26:08.629Z,101552.04
2018-08-10T08:28:36.957Z,101556.46
2018-08-10T08:31:05.868Z,101559.36
2018-08-10T08:33:38.348Z,101557.27
2018-08-10T08:36:06.369Z,101561.86
2018-08-10T08:38:45.992Z,101563.00
2018-08-10T08:41:14.036Z,101568.11
2018-08-10T08:44:56.291Z,101565.81
2018-08-10T08:47:24.443Z,101563.98
2018-08-10T08:49:52.501Z,101560.34
2018-08-10T08:52:20.565Z,101561.80
2018-08-10T08:55:54.041Z,101571.22
2018-08-10T08:58:22.512Z,101565.80
2018-08-10T09:00:50.549Z,101574.00
2018-08-10T09:03:30.456Z,101571.15
2018-08-10T09:05:59.028Z,101567.55
2018-08-10T09:08:27.170Z,101572.22
2018-08-10T09:10:56.809Z,101577.44
2018-08-10T09:13:25.391Z,101571.63
2018-08-10T09:15:54.581Z,101574.45
2018-08-10T09:18:22.672Z,101574.67
2018-08-10T09:20:50.934Z,101577.59
2018-08-10T09:23:18.972Z,101574.31
2018-08-10T09:25:47.211Z,101576.39
2018-08-10T09:28:15.265Z,101578.34
2018-08-10T09:30:43.291Z,101595.75
2018-08-10T09:33:11.428Z,101573.16
2018-08-10T09:35:39.460Z,101578.12
2018-08-10T09:38:07.594Z,101574.03
2018-08-10T09:40:35.604Z,101576.27
2018-08-10T09:43:03.632Z,101577.66
2018-08-10T09:45:31.664Z,101581.95
2018-08-10T09:47:59.860Z,101582.68
2018-08-10T09:50:27.884Z,101581.83
2018-08-10T09:53:00.213Z,101575.88
2018-08-10T09:55:37.541Z,101577.73
2018-08-10T09:58:10.129Z,101583.41
2018-08-10T10:00:43.594Z,101585.00
2018-08-10T10:03:17.484Z,101574.45
2018-08-10T10:05:46.000Z,101572.28
2018-08-10T10:08:14.492Z,101579.11
2018-08-10T10:10:42.598Z,101581.63
2018-08-10T10:13:10.680Z,101584.19
2018-08-10T10:15:38.705Z,101578.68
2018-08-10T10:18:08.446Z,101580.17
2018-08-10T10:20:36.490Z,101575.75
2018-08-10T10:23:05.376Z,101583.73
2018-08-10T10:25:33.477Z,101582.70
2018-08-10T10:28:01.569Z,101575.09
2018-08-10T10:30:29.608Z,101582.34
2018-08-10T10:32:57.632Z,101585.83
2018-08-10T10:35:25.668Z,101579.23
2018-08-10T10:37:53.841Z,101581.66
2018-08-10T10:40:21.866Z,101581.98
2018-08-10T10:42:50.008Z,101587.44
2018-08-10T10:45:18.048Z,101583.81
2018-08-10T10:47:47.120Z,101580.56
2018-08-10T10:50:15.753Z,101578.28
2018-08-10T10:52:44.076Z,101580.45
2018-08-10T10:55:12.448Z,101578.28
2018-08-10T10:57:40.944Z,101580.48
2018-08-10T11:00:12.937Z,101584.94
2018-08-10T11:02:40.948Z,101581.55
2018-08-10T11:05:09.600Z,101571.15
2018-08-10T11:07:38.026Z,101574.47
2018-08-10T11:10:08.249Z,101571.98
2018-08-10T11:12:36.628Z,101570.75
2018-08-10T11:15:05.096Z,101566.21
2018-08-10T11:17:33.457Z,101581.20
2018-08-10T11:20:01.473Z,101577.92
2018-08-10T11:22:29.501Z,101579.78
2018-08-10T11:24:57.626Z,101572.95
2018-08-10T11:27:25.698Z,101575.14
2018-08-10T11:29:53.728Z,101586.29
2018-08-10T11:32:21.749Z,101589.27
2018-08-10T11:34:49.762Z,101581.73
2018-08-10T11:37:24.522Z,101591.92
2018-08-10T11:39:52.544Z,101587.23
2018-08-10T11:42:20.580Z,101585.41
2018-08-10T11:44:48.654Z,101592.22
2018-08-10T11:47:17.031Z,101590.50
2018-08-10T11:49:45.044Z,101588.21
2018-08-10T11:52:13.060Z,101580.03
2018-08-10T11:54:41.099Z,101589.37
2018-08-10T11:57:09.112Z,101591.59
2018-08-10T11:59:37.390Z,101591.80
2018-08-10T12:02:06.788Z,101573.45
2018-08-10T12:04:35.090Z,101577.27
2018-08-10T12:07:03.141Z,101578.95
2018-08-10T12:09:31.201Z,101591.26
2018-08-10T12:11:59.212Z,101576.55
2018-08-10T12:14:27.342Z,101583.47
2018-08-10T12:16:55.421Z,101588.57
2018-08-10T12:19:23.593Z,101593.11
2018-08-10T12:21:51.862Z,101579.77
2018-08-10T12:24:19.938Z,101585.27
2018-08-10T12:26:47.980Z,101595.89
2018-08-10T12:29:15.984Z,101598.31
2018-08-10T12:31:44.000Z,101591.09
2018-08-10T12:34:12.225Z,101585.94
2018-08-10T12:36:40.259Z,101587.83
2018-08-10T12:39:11.337Z,101583.96
2018-08-10T12:41:39.784Z,101580.62
2018-08-10T12:44:07.832Z,101577.27
2018-08-10T12:46:35.893Z,101583.27
2018-08-10T12:49:04.952Z,101590.42
2018-08-10T12:51:32.970Z,101581.25
2018-08-10T12:54:01.105Z,101581.92
2018-08-10T12:56:29.116Z,101586.11
2018-08-10T12:58:57.235Z,101593.31
2018-08-10T13:01:25.596Z,101594.97
2018-08-10T13:03:53.656Z,101583.27
2018-08-10T13:06:21.754Z,101592.48
2018-08-10T13:08:49.940Z,101579.81
2018-08-10T13:11:18.194Z,101586.50
2018-08-10T13:13:46.213Z,101594.33
2018-08-10T13:16:14.373Z,101594.62
2018-08-10T13:18:42.395Z,101585.63
2018-08-10T13:21:10.421Z,101599.94
2018-08-10T13:23:38.440Z,101596.63
2018-08-10T13:26:07.012Z,101613.83
2018-08-10T13:28:35.353Z,101604.12
2018-08-10T13:31:03.560Z,101605.23
2018-08-10T13:33:31.736Z,101606.16
2018-08-10T13:35:59.752Z,101600.84
2018-08-10T13:38:27.781Z,101598.00
2018-08-10T13:40:56.331Z,101591.06
2018-08-10T13:43:24.281Z,101588.74
2018-08-10T13:45:52.301Z,101596.78
2018-08-10T13:48:20.500Z,101574.28
2018-08-10T13:50:48.577Z,101596.96
2018-08-10T13:53:18.472Z,101602.47
2018-08-10T13:55:46.552Z,101582.45
2018-08-10T13:58:14.733Z,101584.95
2018-08-10T14:00:42.996Z,101576.95
2018-08-10T14:03:11.008Z,101577.47
2018-08-10T14:05:39.044Z,101567.12
2018-08-10T14:08:07.233Z,101571.80
2018-08-10T14:10:35.256Z,101572.13
2018-08-10T14:13:03.288Z,101570.94
2018-08-10T14:15:31.289Z,101573.25
2018-08-10T14:17:59.515Z,101569.23
2018-08-10T14:20:27.540Z,101571.92
2018-08-10T14:22:55.549Z,101563.27
2018-08-10T14:25:23.822Z,101564.96
2018-08-10T14:27:52.126Z,101565.11
2018-08-10T14:30:20.120Z,101561.59
2018-08-10T14:32:48.238Z,101557.59
2018-08-10T14:35:16.599Z,101570.01
2018-08-10T14:37:44.791Z,101564.44
2018-08-10T14:40:13.514Z,101555.12
2018-08-10T14:42:41.605Z,101556.74
2018-08-10T14:45:12.800Z,101559.07
2018-08-10T14:47:40.971Z,101560.03
2018-08-10T14:50:11.052Z,101555.02
2018-08-10T14:52:39.265Z,101551.41
2018-08-10T14:55:09.117Z,101549.69
2018-08-10T14:57:37.687Z,101555.36
2018-08-10T15:00:09.785Z,101541.65
2018-08-10T15:02:38.060Z,101545.46
2018-08-10T15:05:06.692Z,101555.51
2018-08-10T15:07:34.713Z,101536.25
2018-08-10T15:10:02.841Z,101533.86
2018-08-10T15:12:31.065Z,101519.13
2018-08-10T15:14:58.960Z,101524.48
2018-08-10T15:17:27.036Z,101526.47
2018-08-10T15:19:55.052Z,101522.27
2018-08-10T15:22:23.069Z,101515.59
2018-08-10T15:24:51.263Z,101519.25
2018-08-10T15:27:19.266Z,101517.77
2018-08-10T15:29:47.429Z,101513.77
2018-08-10T15:32:15.468Z,101516.39
2018-08-10T15:34:43.497Z,101521.84
2018-08-10T15:37:11.608Z,101509.47
2018-08-10T15:39:39.778Z,101509.28
2018-08-10T15:42:08.349Z,101507.64
2018-08-10T15:44:36.365Z,101501.63
2018-08-10T15:47:05.444Z,101502.09
2018-08-10T15:49:33.496Z,101503.24
2018-08-10T15:52:01.560Z,101497.09
2018-08-10T15:54:29.574Z,101505.23
2018-08-10T15:56:57.708Z,101500.56
2018-08-10T15:59:25.774Z,101496.56
2018-08-10T16:01:53.800Z,101497.59
2018-08-10T16:04:21.817Z,101496.42
2018-08-10T16:06:49.844Z,101498.95
2018-08-10T16:09:17.882Z,101494.93
2018-08-10T16:11:45.876Z,101491.90
2018-08-10T16:14:13.900Z,101494.37
2018-08-10T16:16:41.909Z,101499.50
2018-08-10T16:21:28.905Z,101501.72
2018-08-10T16:23:57.286Z,101495.88
2018-08-10T16:26:25.317Z,101494.50
2018-08-10T16:28:53.361Z,101498.81
2018-08-10T16:31:21.591Z,101494.36
2018-08-10T16:33:50.353Z,101492.03
2018-08-10T16:36:18.397Z,101487.03
2018-08-10T16:38:46.673Z,101484.05
2018-08-10T16:41:14.976Z,101483.23
2018-08-10T16:43:43.074Z,101485.05
2018-08-10T16:46:11.153Z,101490.25
2018-08-10T16:48:39.281Z,101479.65
2018-08-10T16:51:07.414Z,101482.20
2018-08-10T16:53:35.465Z,101480.02
2018-08-10T16:56:04.588Z,101477.64
2018-08-10T16:58:32.618Z,101473.80
2018-08-10T17:01:00.680Z,101473.14
2018-08-10T17:03:28.881Z,101474.64
2018-08-10T17:05:56.944Z,101466.84
2018-08-10T17:08:24.960Z,101468.72
2018-08-10T17:10:52.990Z,101469.20
2018-08-10T17:13:21.020Z,101469.50
2018-08-10T17:15:49.042Z,101472.14
2018-08-10T17:18:17.072Z,101468.94
2018-08-10T17:20:45.101Z,101468.08
2018-08-10T17:23:13.136Z,101465.20
2018-08-10T17:25:41.152Z,101461.45
2018-08-10T17:28:09.180Z,101458.25
2018-08-10T17:30:37.416Z,101453.94
2018-08-10T17:33:05.836Z,101455.08
2018-08-10T17:35:33.856Z,101450.77
2018-08-10T17:38:01.896Z,101440.20
2018-08-10T17:40:30.301Z,101433.39
2018-08-10T17:42:58.329Z,101433.87
2018-08-10T17:45:26.369Z,101427.03
2018-08-10T17:47:54.411Z,101429.64
2018-08-10T17:50:22.524Z,101423.80
2018-08-10T17:52:52.887Z,101424.02
2018-08-10T17:55:21.289Z,101420.30
2018-08-10T17:57:49.586Z,101415.80
2018-08-10T18:00:22.196Z,101419.43
2018-08-10T18:02:50.967Z,101418.78
2018-08-10T18:05:19.303Z,101419.10
2018-08-10T18:07:47.737Z,101417.09
2018-08-10T18:10:16.385Z,101412.20
2018-08-10T18:12:45.041Z,101409.67
2018-08-10T18:15:14.378Z,101411.94
2018-08-10T18:17:42.671Z,101413.39
2018-08-10T18:20:13.353Z,101413.30
2018-08-10T18:22:42.000Z,101407.98
2018-08-10T18:25:11.373Z,101417.41
2018-08-10T18:27:40.271Z,101413.83
2018-08-10T18:30:13.325Z,101409.84
2018-08-10T18:32:41.638Z,101412.50
2018-08-10T18:35:10.178Z,101409.52
2018-08-10T18:37:39.281Z,101408.27
2018-08-10T18:40:08.124Z,101405.30
2018-08-10T18:42:36.968Z,101405.45
2018-08-10T18:45:05.948Z,101405.89
2018-08-10T18:47:33.983Z,101406.02
2018-08-10T18:50:02.129Z,101403.45
2018-08-10T18:52:30.200Z,101397.13
2018-08-10T18:54:58.273Z,101400.33
2018-08-10T18:57:26.350Z,101398.91
2018-08-10T18:59:54.404Z,101395.89
2018-08-10T19:02:22.488Z,101405.69
2018-08-10T19:04:50.482Z,101401.73
2018-08-10T19:07:18.720Z,101398.55
2018-08-10T19:09:47.294Z,101399.62
2018-08-10T19:12:15.453Z,101396.86
2018-08-10T19:14:43.379Z,101392.55
2018-08-10T19:17:11.431Z,101398.70
2018-08-10T19:19:39.888Z,101397.38
2018-08-10T19:22:07.940Z,101399.98
2018-08-10T19:24:35.962Z,101395.73
2018-08-10T19:27:04.990Z,101395.89
2018-08-10T19:29:33.024Z,101393.88
2018-08-10T19:32:01.057Z,101391.22
2018-08-10T19:34:29.549Z,101391.55
2018-08-10T19:36:57.723Z,101387.09
2018-08-10T19:39:26.012Z,101387.57
2018-08-10T19:41:54.040Z,101380.25
2018-08-10T19:44:22.173Z,101384.66
2018-08-10T19:46:50.241Z,101382.00
2018-08-10T19:49:18.277Z,101379.51
2018-08-10T19:51:46.645Z,101375.20
2018-08-10T19:54:14.677Z,101374.36
2018-08-10T19:56:42.699Z,101379.51
2018-08-10T19:59:10.769Z,101375.32
2018-08-10T20:01:38.812Z,101376.64
2018-08-10T20:04:06.855Z,101381.26
2018-08-10T20:06:34.904Z,101378.44
2018-08-10T20:09:02.957Z,101372.98
2018-08-10T20:11:30.976Z,101375.78
2018-08-10T20:13:59.040Z,101370.33
2018-08-10T20:16:27.237Z,101373.99
2018-08-10T20:18:55.446Z,101375.14
2018-08-10T20:21:23.473Z,101366.73
2018-08-10T20:23:51.499Z,101364.44
2018-08-10T20:26:19.518Z,101365.23
2018-08-10T20:28:47.589Z,101358.72
2018-08-10T20:31:15.798Z,101368.00
2018-08-10T20:33:43.824Z,101362.52
2018-08-10T20:36:11.856Z,101357.22
2018-08-10T20:38:39.893Z,101352.61
2018-08-10T20:41:07.934Z,101358.87
2018-08-10T20:43:35.969Z,101358.03
2018-08-10T20:46:05.044Z,101363.70
2018-08-10T20:48:33.077Z,101363.00
2018-08-10T20:51:01.089Z,101364.48
2018-08-10T20:53:29.108Z,101368.64
2018-08-10T20:55:57.172Z,101370.95
2018-08-10T20:58:25.176Z,101375.14
2018-08-10T21:00:53.200Z,101364.17
2018-08-10T21:03:21.217Z,101367.67
2018-08-10T21:05:49.243Z,101368.16
2018-08-10T21:08:17.314Z,101365.02
2018-08-10T21:10:45.296Z,101367.83
2018-08-10T21:13:13.322Z,101367.31
2018-08-10T21:15:41.338Z,101373.13
2018-08-10T21:18:09.377Z,101366.63
2018-08-10T21:20:37.393Z,101362.16
2018-08-10T21:23:05.457Z,101361.52
2018-08-10T21:25:33.657Z,101359.36
2018-08-10T21:28:01.751Z,101356.70
2018-08-10T21:30:29.809Z,101349.11
2018-08-10T21:32:57.841Z,101351.28
2018-08-10T21:35:25.963Z,101346.94
2018-08-10T21:37:54.053Z,101349.59
2018-08-10T21:40:22.105Z,101346.67
2018-08-10T21:42:50.474Z,101342.81
2018-08-10T21:45:18.481Z,101350.92
2018-08-10T21:47:46.513Z,101342.58
2018-08-10T21:50:15.184Z,101351.30
2018-08-10T21:52:43.955Z,101353.83
2018-08-10T21:55:12.670Z,101350.81
2018-08-10T21:57:40.915Z,101355.63
2018-08-10T22:01:13.059Z,101356.27
2018-08-10T22:03:47.706Z,101356.60
2018-08-10T22:06:16.210Z,101351.03
2018-08-10T22:08:44.232Z,101353.45
2018-08-10T22:11:12.366Z,101353.50
2018-08-10T22:13:45.702Z,101351.48
2018-08-10T22:16:19.124Z,101344.05
2018-08-10T22:18:52.597Z,101343.05
2018-08-10T22:21:20.648Z,101337.22
2018-08-10T22:23:48.673Z,101339.38
2018-08-10T22:26:16.756Z,101342.36
2018-08-10T22:28:44.766Z,101332.76
2018-08-10T22:31:12.809Z,101330.44
2018-08-10T22:33:40.870Z,101333.62
2018-08-10T22:36:08.924Z,101330.17
2018-08-10T22:38:37.426Z,101337.12
2018-08-10T22:41:05.481Z,101338.66
2018-08-10T22:43:33.593Z,101338.98
2018-08-10T22:46:01.632Z,101329.53
2018-08-10T22:48:29.742Z,101333.14
2018-08-10T22:50:57.798Z,101336.85
2018-08-10T22:53:25.829Z,101338.17
2018-08-10T22:55:53.924Z,101338.81
2018-08-10T22:58:21.951Z,101347.39
2018-08-10T23:00:49.996Z,101352.20
2018-08-10T23:03:18.047Z,101355.27
2018-08-10T23:05:46.058Z,101355.66
2018-08-10T23:08:14.092Z,101356.29
2018-08-10T23:10:42.332Z,101358.87
2018-08-10T23:13:10.372Z,101358.27
2018-08-10T23:15:38.405Z,101357.05
2018-08-10T23:18:07.165Z,101357.62
2018-08-10T23:20:35.195Z,101353.46
2018-08-10T23:23:03.229Z,101359.25
2018-08-10T23:25:31.328Z,101354.25
2018-08-10T23:27:59.365Z,101348.81
2018-08-10T23:30:27.583Z,101348.12
2018-08-10T23:32:55.525Z,101360.88
2018-08-10T23:35:23.678Z,101379.36
2018-08-10T23:37:51.725Z,101392.41
2018-08-10T23:40:19.753Z,101396.66
2018-08-10T23:42:47.775Z,101400.23
2018-08-10T23:45:16.279Z,101402.78
2018-08-10T23:47:44.824Z,101407.47
2018-08-10T23:50:14.430Z,101398.40
2018-08-10T23:52:42.924Z,101406.96
2018-08-10T23:55:11.600Z,101423.87
2018-08-10T23:57:40.582Z,101416.48
